createdAt,value
2022-11-29T04:39:18.385Z,93.93
2022-11-29T04:42:23.752Z,93.61
2022-11-29T04:45:31.622Z,93.68
2022-11-29T04:48:21.288Z,93.51
2022-11-29T04:51:05.131Z,93.37
2022-11-29T04:53:53.332Z,93.12
2022-11-29T04:56:38.086Z,93.17
2022-11-29T04:59:19.493Z,93.00
2022-11-29T05:02:04.041Z,93.03
2022-11-29T05:04:47.356Z,93.13
2022-11-29T05:07:30.692Z,92.83
2022-11-29T05:10:15.269Z,92.84
2022-11-29T05:12:57.496Z,92.80
2022-11-29T05:15:56.008Z,92.74
2022-11-29T05:18:49.990Z,92.62
2022-11-29T05:21:31.972Z,92.53
2022-11-29T05:24:18.644Z,92.65
2022-11-29T05:26:57.233Z,92.62
2022-11-29T05:29:40.179Z,92.45
2022-11-29T05:32:30.477Z,92.24
2022-11-29T05:35:27.829Z,92.01
2022-11-29T05:38:09.783Z,92.10
2022-11-29T05:40:54.216Z,92.21
2022-11-29T05:43:38.848Z,92.15
2022-11-29T05:46:19.875Z,92.11
2022-11-29T05:49:00.083Z,92.00
2022-11-29T05:51:43.433Z,91.87
2022-11-29T05:54:26.330Z,91.99
2022-11-29T05:57:09.110Z,91.85
2022-11-29T05:59:43.243Z,92.09
2022-11-29T06:02:30.145Z,92.05
2022-11-29T06:05:16.557Z,91.66
2022-11-29T06:07:55.113Z,91.53
2022-11-29T06:10:34.302Z,91.60
2022-11-29T06:13:18.868Z,91.78
2022-11-29T06:16:25.156Z,91.73
2022-11-29T06:19:42.760Z,91.49
2022-11-29T06:22:31.739Z,91.53
2022-11-29T06:25:21.879Z,91.26
2022-11-29T06:28:11.383Z,91.34
2022-11-29T06:30:54.341Z,91.38
2022-11-29T06:33:31.854Z,91.30
2022-11-29T06:36:16.266Z,91.25
2022-11-29T06:38:48.984Z,91.02
2022-11-29T06:41:24.668Z,91.06
2022-11-29T06:43:58.144Z,91.00
2022-11-29T06:46:39.785Z,91.30
2022-11-29T06:54:01.565Z,91.24
2022-11-29T07:05:44.605Z,91.20
2022-11-29T07:08:20.129Z,91.22
2022-11-29T07:11:51.094Z,91.24
2022-11-29T07:31:58.618Z,92.45
2022-11-29T07:47:46.976Z,92.88
2022-11-29T07:50:20.219Z,92.70
2022-11-29T07:52:59.127Z,92.67
2022-11-29T07:55:33.170Z,92.55
2022-11-29T07:58:13.996Z,92.37
2022-11-29T08:01:10.860Z,92.61
2022-11-29T08:03:50.243Z,92.53
2022-11-29T08:10:53.193Z,92.27
2022-11-29T08:13:31.874Z,92.16
2022-11-29T08:20:36.761Z,92.35
2022-11-29T08:27:58.859Z,92.94
2022-11-29T08:30:32.557Z,92.74
2022-11-29T08:33:12.346Z,92.59
2022-11-29T08:35:44.523Z,92.35
2022-11-29T08:38:22.886Z,92.52
2022-11-29T08:50:25.792Z,93.22
2022-11-29T08:53:43.225Z,93.42
2022-11-29T09:00:04.230Z,92.97
2022-11-29T09:02:39.542Z,92.74
2022-11-29T09:06:18.159Z,93.00
2022-11-29T09:08:59.314Z,93.24
2022-11-29T09:12:21.788Z,93.39
2022-11-29T09:15:00.084Z,93.50
2022-11-29T09:17:32.331Z,93.60
2022-11-29T09:20:12.966Z,93.51
2022-11-29T09:22:45.790Z,93.38
2022-11-29T09:25:24.247Z,93.35
2022-11-29T09:27:58.539Z,93.52
2022-11-29T09:30:38.440Z,93.70
2022-11-29T09:38:04.670Z,93.80
2022-11-29T09:58:55.285Z,93.58
2022-11-29T10:27:46.344Z,94.06
2022-11-29T10:30:19.596Z,93.97
2022-11-29T10:33:01.438Z,94.11
2022-11-29T10:45:25.320Z,94.31
2022-11-29T10:53:18.907Z,93.98
2022-11-29T11:22:26.719Z,94.19
2022-11-29T11:25:50.205Z,93.97
2022-11-29T11:33:22.583Z,93.62
2022-11-29T11:44:53.694Z,95.14
2022-11-29T11:55:02.680Z,94.66
2022-11-29T12:02:53.032Z,92.85
2022-11-29T12:05:32.386Z,91.78
2022-11-29T12:08:08.142Z,91.23
2022-11-29T12:15:59.555Z,91.04
2022-11-29T12:19:15.181Z,90.61
2022-11-29T12:31:15.002Z,87.74
2022-11-29T12:38:59.941Z,87.88
2022-11-29T13:17:55.593Z,84.03
2022-11-29T13:20:57.637Z,84.16
2022-11-29T13:37:12.057Z,84.91
2022-11-29T13:39:59.041Z,85.15
2022-11-29T13:42:42.034Z,85.44
2022-11-29T13:45:24.328Z,85.59
2022-11-29T13:48:01.895Z,85.50
2022-11-29T13:50:44.487Z,85.72
2022-11-29T13:53:21.580Z,85.67
2022-11-29T13:56:00.767Z,85.34
2022-11-29T13:58:42.333Z,85.27
2022-11-29T14:01:17.651Z,85.60
2022-11-29T14:04:01.784Z,85.64
2022-11-29T14:06:38.553Z,85.77
2022-11-29T14:09:34.227Z,85.78
2022-11-29T14:12:20.593Z,85.92
2022-11-29T14:14:57.668Z,85.94
2022-11-29T14:17:47.763Z,85.88
2022-11-29T14:23:42.238Z,85.79
2022-11-29T14:26:31.470Z,85.51
2022-11-29T14:29:23.585Z,85.38
2022-11-29T14:31:56.923Z,85.60
2022-11-29T14:34:39.018Z,85.81
2022-11-29T14:37:23.531Z,85.79
2022-11-29T14:39:59.158Z,85.76
2022-11-29T14:42:32.413Z,85.55
2022-11-29T14:45:07.028Z,85.60
2022-11-29T14:47:49.279Z,85.52
2022-11-29T14:50:32.908Z,85.54
2022-11-29T14:53:06.644Z,85.63
2022-11-29T14:55:40.079Z,85.60
2022-11-29T14:58:24.191Z,85.76
2022-11-29T15:01:11.158Z,85.66
2022-11-29T15:03:50.744Z,85.70
2022-11-29T15:06:29.090Z,85.90
2022-11-29T15:09:05.770Z,85.91
2022-11-29T15:11:49.608Z,85.83
2022-11-29T15:14:29.943Z,85.84
2022-11-29T15:17:18.866Z,86.01
2022-11-29T15:20:26.086Z,86.05
2022-11-29T15:23:05.344Z,85.87
2022-11-29T15:25:47.187Z,86.06
2022-11-29T15:28:25.119Z,86.28
2022-11-29T15:34:27.938Z,86.29
2022-11-29T15:37:00.402Z,86.47
2022-11-29T15:39:35.168Z,86.53
2022-11-29T15:42:13.543Z,86.70
2022-11-29T15:44:52.520Z,86.53
2022-11-29T15:47:26.134Z,86.71
2022-11-29T15:49:58.373Z,86.75
2022-11-29T15:52:36.435Z,86.70
2022-11-29T15:55:15.515Z,86.73
2022-11-29T15:57:51.648Z,86.73
2022-11-29T16:00:25.790Z,86.83
2022-11-29T16:03:04.515Z,86.79
2022-11-29T16:05:38.476Z,86.92
2022-11-29T16:08:15.803Z,87.00
2022-11-29T16:10:53.121Z,87.12
2022-11-29T16:13:43.175Z,87.15
2022-11-29T16:16:18.422Z,87.27
2022-11-29T16:18:51.826Z,87.25
2022-11-29T16:21:29.638Z,87.26
2022-11-29T16:24:12.248Z,87.36
2022-11-29T16:26:47.310Z,87.57
2022-11-29T16:29:28.192Z,87.44
2022-11-29T16:32:00.656Z,87.72
2022-11-29T16:34:34.023Z,87.68
2022-11-29T16:37:08.691Z,87.65
2022-11-29T16:39:41.353Z,87.51
2022-11-29T16:42:25.019Z,87.45
2022-11-29T16:45:30.419Z,87.56
2022-11-29T16:48:03.247Z,87.62
2022-11-29T16:50:35.900Z,87.72
2022-11-29T16:53:37.330Z,87.62
2022-11-29T16:56:14.075Z,87.55
2022-11-29T16:59:24.618Z,87.55
2022-11-29T17:01:41.518Z,87.61
2022-11-29T17:04:23.372Z,87.87
2022-11-29T17:06:57.876Z,87.88
2022-11-29T17:09:32.638Z,87.92
2022-11-29T17:12:12.914Z,88.04
2022-11-29T17:14:45.345Z,88.16
2022-11-29T17:17:20.216Z,88.17
2022-11-29T17:19:52.391Z,88.30
2022-11-29T17:22:24.577Z,88.36
2022-11-29T17:24:56.725Z,88.31
2022-11-29T17:27:28.933Z,88.25
2022-11-29T17:30:00.975Z,88.23
2022-11-29T17:32:34.250Z,88.30
2022-11-29T17:35:06.964Z,88.56
2022-11-29T17:37:39.081Z,88.53
2022-11-29T17:40:15.401Z,88.61
2022-11-29T17:42:48.581Z,88.63
2022-11-29T17:45:20.764Z,88.80
2022-11-29T17:47:53.005Z,88.89
2022-11-29T17:50:25.243Z,88.86
2022-11-29T17:52:57.299Z,88.67
2022-11-29T17:55:29.870Z,88.82
2022-11-29T17:58:02.363Z,88.97
2022-11-29T18:00:35.023Z,89.11
2022-11-29T18:03:07.420Z,89.52
2022-11-29T18:05:39.552Z,89.47
2022-11-29T18:08:11.694Z,89.49
2022-11-29T18:10:43.784Z,89.58
2022-11-29T18:13:15.852Z,89.70
2022-11-29T18:15:47.967Z,89.63
2022-11-29T18:18:20.151Z,89.61
2022-11-29T18:20:52.475Z,89.58
2022-11-29T18:23:24.660Z,89.72
2022-11-29T18:26:06.020Z,89.72
2022-11-29T18:28:39.881Z,89.93
2022-11-29T18:31:13.886Z,89.88
2022-11-29T18:33:49.027Z,89.98
2022-11-29T18:36:23.012Z,90.15
2022-11-29T18:38:59.401Z,89.90
2022-11-29T18:41:32.782Z,90.15
2022-11-29T18:44:08.118Z,90.02
2022-11-29T18:46:41.648Z,89.97
2022-11-29T18:49:15.130Z,90.45
2022-11-29T18:51:48.635Z,90.38
2022-11-29T18:54:21.165Z,90.42
2022-11-29T18:56:53.626Z,90.21
2022-11-29T18:59:26.110Z,90.48
2022-11-29T19:01:58.395Z,90.60
2022-11-29T19:04:30.593Z,90.74
2022-11-29T19:07:02.708Z,90.75
2022-11-29T19:09:34.791Z,90.91
2022-11-29T19:12:09.726Z,90.82
2022-11-29T19:14:46.588Z,90.88
2022-11-29T19:17:25.482Z,90.82
2022-11-29T19:19:57.650Z,90.71
2022-11-29T19:22:30.196Z,90.90
2022-11-29T19:25:02.447Z,90.93
2022-11-29T19:27:34.663Z,91.00
2022-11-29T19:30:08.319Z,90.94
2022-11-29T19:32:40.527Z,91.01
2022-11-29T19:35:12.939Z,91.17
2022-11-29T19:37:46.241Z,91.20
2022-11-29T19:40:18.918Z,91.38
2022-11-29T19:42:51.500Z,91.43
2022-11-29T19:45:23.655Z,91.40
2022-11-29T19:47:56.873Z,91.27
2022-11-29T19:50:29.219Z,91.49
2022-11-29T19:53:03.418Z,91.35
2022-11-29T19:55:39.376Z,91.53
2022-11-29T20:01:28.196Z,91.58
2022-11-29T20:04:01.204Z,91.53
2022-11-29T20:06:33.728Z,91.91
2022-11-29T20:09:06.474Z,91.91
2022-11-29T20:11:38.885Z,91.99
2022-11-29T20:14:15.288Z,91.98
2022-11-29T20:16:47.378Z,92.12
2022-11-29T20:19:20.086Z,92.02
2022-11-29T20:21:52.694Z,92.09
2022-11-29T20:24:24.788Z,92.37
2022-11-29T20:26:57.469Z,92.44
2022-11-29T20:29:32.778Z,92.36
2022-11-29T20:32:04.980Z,92.33
2022-11-29T20:34:38.595Z,92.27
2022-11-29T20:37:24.564Z,92.46
2022-11-29T20:40:01.680Z,92.63
2022-11-29T20:42:51.541Z,92.71
2022-11-29T20:45:25.558Z,92.81
2022-11-29T20:48:01.863Z,92.83
2022-11-29T20:50:35.315Z,92.86
2022-11-29T20:53:21.055Z,92.96
2022-11-29T20:55:53.178Z,93.06
2022-11-29T20:58:26.654Z,92.94
2022-11-29T21:00:59.021Z,92.92
2022-11-29T21:03:31.929Z,93.06
2022-11-29T21:06:07.163Z,93.17
2022-11-29T21:08:41.642Z,93.23
2022-11-29T21:11:16.222Z,93.22
2022-11-29T21:13:50.325Z,93.23
2022-11-29T21:16:31.137Z,93.31
2022-11-29T21:19:05.376Z,93.37
2022-11-29T21:21:44.687Z,93.40
2022-11-29T21:24:28.857Z,93.24
2022-11-29T21:27:05.793Z,93.44
2022-11-29T21:29:42.191Z,93.46
2022-11-29T21:32:23.899Z,93.44
2022-11-29T21:34:56.870Z,93.40
2022-11-29T21:37:32.136Z,93.57
2022-11-29T21:40:05.415Z,93.71
2022-11-29T21:42:38.599Z,93.68
2022-11-29T21:45:15.521Z,93.57
2022-11-29T21:47:53.978Z,93.63
2022-11-29T21:50:26.303Z,93.80
2022-11-29T21:52:58.552Z,93.84
2022-11-29T21:55:32.241Z,93.96
2022-11-29T21:58:07.007Z,93.69
2022-11-29T22:00:39.964Z,93.86
2022-11-29T22:03:18.560Z,93.74
2022-11-29T22:05:51.169Z,93.96
2022-11-29T22:08:23.686Z,93.90
2022-11-29T22:11:04.428Z,93.84
2022-11-29T22:13:37.272Z,93.94
2022-11-29T22:16:15.545Z,94.11
2022-11-29T22:18:48.031Z,94.01
2022-11-29T22:21:20.152Z,94.07
2022-11-29T22:23:52.821Z,94.27
2022-11-29T22:26:28.693Z,94.12
2022-11-29T22:29:03.143Z,94.25
2022-11-29T22:31:37.170Z,94.45
2022-11-29T22:34:09.367Z,94.43
2022-11-29T22:36:42.188Z,94.40
2022-11-29T22:39:14.989Z,94.32
2022-11-29T22:41:53.685Z,94.25
2022-11-29T22:44:26.856Z,94.25
2022-11-29T22:46:59.031Z,94.36
2022-11-29T22:49:33.298Z,94.22
2022-11-29T22:52:05.542Z,94.35
2022-11-29T22:54:37.699Z,94.24
2022-11-29T22:57:09.874Z,94.38
2022-11-29T22:59:42.090Z,94.40
2022-11-29T23:02:14.313Z,94.55
2022-11-29T23:04:46.952Z,94.52
2022-11-29T23:07:19.436Z,94.50
2022-11-29T23:09:51.542Z,94.55
2022-11-29T23:12:23.881Z,94.48
2022-11-29T23:14:56.773Z,94.45
2022-11-29T23:17:31.537Z,94.50
2022-11-29T23:20:03.678Z,94.33
2022-11-29T23:22:39.347Z,94.28
2022-11-29T23:25:13.930Z,94.26
2022-11-29T23:27:48.179Z,94.37
2022-11-29T23:30:22.835Z,94.14
2022-11-29T23:32:56.042Z,94.31
2022-11-29T23:35:30.686Z,94.20
2022-11-29T23:38:03.154Z,94.16
2022-11-29T23:40:38.506Z,94.44
2022-11-29T23:43:10.662Z,94.36
2022-11-29T23:45:43.497Z,94.29
2022-11-29T23:48:18.605Z,94.54
2022-11-29T23:50:53.893Z,94.37
2022-11-29T23:53:26.143Z,94.43
2022-11-29T23:56:03.941Z,94.51
2022-11-29T23:58:38.093Z,94.56
